createdAt,value
2017-12-01T00:03:05.844Z,18.87
2017-12-01T00:05:33.321Z,17.83
2017-12-01T00:08:00.906Z,17.35
2017-12-01T00:10:28.549Z,18.35
2017-12-01T00:12:56.148Z,18.17
2017-12-01T00:15:24.449Z,20.25
2017-12-01T00:17:52.819Z,17.50
2017-12-01T00:20:20.382Z,18.67
2017-12-01T00:22:48.125Z,19.33
2017-12-01T00:25:16.516Z,18.75
2017-12-01T00:27:44.891Z,17.50
2017-12-01T00:30:13.247Z,18.65
2017-12-01T00:32:40.850Z,19.80
2017-12-01T00:35:08.495Z,20.33
2017-12-01T00:40:39.016Z,20.15
2017-12-01T00:43:13.004Z,19.80
2017-12-01T00:48:43.330Z,20.15
2017-12-01T00:51:10.864Z,20.25
2017-12-01T00:53:38.602Z,18.40
2017-12-01T00:59:09.082Z,19.05
2017-12-01T01:01:36.566Z,19.17
2017-12-01T01:04:12.079Z,18.95
2017-12-01T01:06:46.422Z,19.37
2017-12-01T01:42:10.288Z,23.92
2017-12-01T01:44:38.576Z,24.67
2017-12-01T01:47:06.745Z,24.80
2017-12-01T02:15:36.174Z,28.90
2017-12-01T02:18:03.805Z,30.90
2017-12-01T02:20:31.434Z,31.62
2017-12-01T02:22:59.749Z,31.08
2017-12-01T02:25:27.340Z,32.88
2017-12-01T02:27:55.266Z,31.67
2017-12-01T02:30:22.934Z,33.53
2017-12-01T02:32:50.555Z,31.87
2017-12-01T02:35:18.908Z,31.40
2017-12-01T02:37:46.547Z,31.48
2017-12-01T02:40:14.186Z,31.00
2017-12-01T02:42:42.652Z,31.50
2017-12-01T02:45:11.052Z,31.70
2017-12-01T02:47:39.267Z,32.47
2017-12-01T02:50:06.924Z,31.60
2017-12-01T02:52:34.558Z,33.63
2017-12-01T02:55:02.206Z,34.00
2017-12-01T02:57:29.821Z,33.28
2017-12-01T02:59:57.467Z,31.52
2017-12-01T03:02:25.039Z,34.00
2017-12-01T03:04:52.652Z,33.88
2017-12-01T03:07:20.241Z,35.78
2017-12-01T03:09:47.858Z,36.20
2017-12-01T03:12:16.205Z,39.83
2017-12-01T03:14:43.808Z,35.50
2017-12-01T03:17:11.427Z,39.53
2017-12-01T03:19:39.066Z,42.40
2017-12-01T03:22:06.711Z,46.97
2017-12-01T03:24:34.328Z,41.00
2017-12-01T03:27:02.734Z,43.72
2017-12-01T03:29:30.360Z,43.80
2017-12-01T03:31:58.820Z,47.03
2017-12-01T03:34:26.451Z,42.30
2017-12-01T03:36:54.074Z,43.58
2017-12-01T03:39:23.133Z,43.25
2017-12-01T03:41:50.742Z,42.60
2017-12-01T03:44:18.368Z,40.45
2017-12-01T03:46:46.114Z,39.20
2017-12-01T03:49:13.694Z,41.10
2017-12-01T03:51:41.279Z,37.80
2017-12-01T03:54:09.661Z,34.55
2017-12-01T03:56:37.384Z,34.60
2017-12-01T03:59:05.003Z,34.97
2017-12-01T04:01:32.542Z,34.67
2017-12-01T04:04:00.133Z,34.45
2017-12-01T04:06:27.898Z,33.90
2017-12-01T04:08:55.539Z,32.83
2017-12-01T04:11:23.162Z,34.25
2017-12-01T04:13:50.769Z,33.22
2017-12-01T04:16:18.345Z,37.45
2017-12-01T04:18:45.947Z,35.22
2017-12-01T04:21:13.539Z,34.60
2017-12-01T04:23:41.059Z,34.22
2017-12-01T04:26:08.654Z,34.20
2017-12-01T04:31:56.221Z,30.73
2017-12-01T04:34:24.343Z,34.55
2017-12-01T04:36:52.551Z,33.95
2017-12-01T04:39:29.058Z,33.38
2017-12-01T05:02:14.349Z,30.73
2017-12-01T05:04:43.197Z,34.30
2017-12-01T05:07:12.351Z,32.40
2017-12-01T05:15:28.669Z,32.63
2017-12-01T05:17:57.051Z,33.30
2017-12-01T05:50:47.525Z,27.33
2017-12-01T05:53:15.119Z,28.27
2017-12-01T05:55:43.028Z,26.98
2017-12-01T05:58:10.638Z,29.42
2017-12-01T06:00:39.033Z,27.23
2017-12-01T06:03:07.026Z,24.77
2017-12-01T06:05:34.550Z,26.60
2017-12-01T06:08:02.114Z,28.33
2017-12-01T06:10:32.858Z,27.13
2017-12-01T06:13:00.433Z,29.35
2017-12-01T06:15:33.714Z,26.30
2017-12-01T06:18:01.330Z,29.95
2017-12-01T06:20:29.626Z,27.27
2017-12-01T06:22:57.269Z,26.75
2017-12-01T06:25:26.189Z,26.23
2017-12-01T06:36:34.635Z,29.00
2017-12-01T06:39:02.897Z,27.87
2017-12-01T06:41:30.397Z,28.23
2017-12-01T06:44:21.352Z,28.62
2017-12-01T06:46:50.622Z,29.45
2017-12-01T06:49:18.282Z,30.48
2017-12-01T06:51:51.647Z,31.10
2017-12-01T06:54:19.221Z,31.58
2017-12-01T06:56:47.001Z,31.52
2017-12-01T07:08:39.189Z,31.02
2017-12-01T07:11:07.620Z,32.75
2017-12-01T07:13:40.911Z,34.30
2017-12-01T07:16:09.248Z,31.33
2017-12-01T07:18:39.351Z,31.58
2017-12-01T07:21:14.421Z,32.83
2017-12-01T07:23:41.938Z,36.13
2017-12-01T07:26:21.579Z,34.78
2017-12-01T07:28:49.060Z,34.53
2017-12-01T07:31:16.626Z,35.50
2017-12-01T07:36:27.272Z,33.25
2017-12-01T07:38:55.514Z,32.90
2017-12-01T07:41:23.602Z,33.40
2017-12-01T07:43:52.949Z,32.90
2017-12-01T07:46:26.072Z,32.42
2017-12-01T07:48:59.701Z,34.35
2017-12-01T07:51:27.934Z,33.50
2017-12-01T07:53:55.424Z,33.65
2017-12-01T07:56:23.863Z,33.70
2017-12-01T09:46:34.223Z,23.33
2017-12-01T09:49:01.763Z,23.27
2017-12-01T09:51:30.083Z,21.37
2017-12-01T09:54:01.194Z,24.52
2017-12-01T09:56:28.760Z,22.48
2017-12-01T09:58:56.290Z,20.98
2017-12-01T10:01:23.806Z,21.52
2017-12-01T10:03:51.302Z,21.77
2017-12-01T10:06:18.792Z,20.62
2017-12-01T10:08:46.338Z,20.12
2017-12-01T10:11:14.617Z,16.45
2017-12-01T10:13:42.859Z,17.15
2017-12-01T10:16:10.359Z,18.20
2017-12-01T10:18:38.012Z,18.08
2017-12-01T10:21:06.313Z,20.15
2017-12-01T10:23:33.827Z,19.67
2017-12-01T10:26:01.404Z,19.90
2017-12-01T10:28:29.726Z,18.12
2017-12-01T10:30:57.291Z,17.00
2017-12-01T10:33:38.002Z,16.15
2017-12-01T10:36:05.633Z,16.20
2017-12-01T10:38:33.174Z,15.48
2017-12-01T10:41:00.883Z,14.27
2017-12-01T10:43:28.747Z,13.05
2017-12-01T10:45:56.783Z,14.55
2017-12-01T10:48:24.307Z,14.02
2017-12-01T10:50:53.337Z,14.87
2017-12-01T10:53:20.946Z,13.98
2017-12-01T10:58:47.792Z,13.43
2017-12-01T11:01:15.299Z,14.52
2017-12-01T11:03:42.841Z,13.85
2017-12-01T11:06:10.435Z,14.35
2017-12-01T11:08:39.184Z,14.60
2017-12-01T11:13:57.166Z,14.98
2017-12-01T11:16:31.198Z,14.68
2017-12-01T11:18:58.789Z,15.30
2017-12-01T11:21:26.304Z,15.20
2017-12-01T11:23:53.802Z,15.60
2017-12-01T11:26:21.312Z,16.37
2017-12-01T11:28:54.794Z,16.70
2017-12-01T11:31:23.521Z,16.50
2017-12-01T12:05:24.460Z,14.52
2017-12-01T12:07:52.002Z,14.15
2017-12-01T12:10:19.500Z,15.00
2017-12-01T12:12:47.040Z,10.68
2017-12-01T12:15:14.551Z,12.45
2017-12-01T12:17:42.850Z,12.82
2017-12-01T12:20:18.062Z,11.12
2017-12-01T12:22:53.994Z,11.77
2017-12-01T12:25:21.527Z,10.70
2017-12-01T12:27:58.189Z,11.75
2017-12-01T12:30:36.915Z,9.75
2017-12-01T12:33:12.514Z,9.77
2017-12-01T12:35:40.857Z,11.88
2017-12-01T12:38:11.244Z,10.32
2017-12-01T12:40:39.248Z,11.45
2017-12-01T12:43:12.050Z,11.98
2017-12-01T12:45:40.543Z,10.77
2017-12-01T12:48:12.443Z,11.77
2017-12-01T12:50:40.771Z,12.60
2017-12-01T12:53:08.297Z,13.25
2017-12-01T12:55:37.676Z,12.82
2017-12-01T12:58:20.093Z,12.27
2017-12-01T13:00:47.648Z,12.57
2017-12-01T13:03:15.935Z,11.65
2017-12-01T13:05:43.464Z,11.57
2017-12-01T13:08:12.827Z,11.68
2017-12-01T13:10:40.399Z,13.23
2017-12-01T13:13:07.899Z,13.15
2017-12-01T13:15:35.419Z,11.68
2017-12-01T13:18:02.952Z,12.35
2017-12-01T13:20:40.190Z,12.80
2017-12-01T13:23:09.639Z,13.25
2017-12-01T13:25:37.193Z,15.45
2017-12-01T13:30:43.041Z,21.67
2017-12-01T13:33:10.679Z,22.95
2017-12-01T13:35:38.498Z,20.70
2017-12-01T13:38:20.551Z,20.60
2017-12-01T13:40:55.617Z,22.25
2017-12-01T13:43:23.161Z,22.20
2017-12-01T13:46:14.194Z,22.83
2017-12-01T13:48:48.291Z,22.60
2017-12-01T13:51:36.305Z,24.37
2017-12-01T13:54:17.318Z,22.17
2017-12-01T13:59:38.002Z,23.05
2017-12-01T14:02:21.032Z,22.17
2017-12-01T14:04:59.247Z,20.27
2017-12-01T14:07:26.802Z,21.00
2017-12-01T14:09:55.142Z,22.55
2017-12-01T14:12:22.914Z,22.75
2017-12-01T14:14:56.145Z,23.00
2017-12-01T14:17:40.331Z,23.55
2017-12-01T14:20:14.134Z,23.27
2017-12-01T14:22:41.711Z,25.27
2017-12-01T14:25:17.269Z,24.42
2017-12-01T14:27:44.782Z,24.35
2017-12-01T14:36:18.979Z,24.23
2017-12-01T14:38:47.373Z,24.90
2017-12-01T14:41:31.614Z,25.35
2017-12-01T14:43:59.329Z,22.98
2017-12-01T14:46:26.936Z,19.98
2017-12-01T14:48:54.486Z,24.30
2017-12-01T14:51:22.091Z,24.60
2017-12-01T14:53:49.672Z,24.23
2017-12-01T14:56:17.295Z,24.33
2017-12-01T14:58:45.426Z,24.50
2017-12-01T15:01:21.663Z,23.42
2017-12-01T15:03:56.270Z,24.33
2017-12-01T15:06:23.858Z,22.80
2017-12-01T15:08:58.017Z,22.42
2017-12-01T15:11:29.650Z,24.37
2017-12-01T15:14:09.274Z,25.05
2017-12-01T15:16:40.800Z,24.25
2017-12-01T15:19:08.317Z,24.87
2017-12-01T15:21:35.827Z,23.10
2017-12-01T15:43:58.171Z,24.87
2017-12-01T15:46:36.378Z,24.12
2017-12-01T15:51:43.181Z,25.23
2017-12-01T15:54:15.986Z,25.55
2017-12-01T15:56:43.629Z,27.65
2017-12-01T15:59:19.292Z,29.10
2017-12-01T16:01:55.219Z,25.83
2017-12-01T16:07:35.615Z,29.15
2017-12-01T16:10:09.843Z,30.20
2017-12-01T16:12:38.223Z,30.20
2017-12-01T16:15:13.833Z,28.73
2017-12-01T16:17:41.376Z,30.12
2017-12-01T16:20:13.062Z,31.52
2017-12-01T16:22:41.367Z,32.40
2017-12-01T16:25:12.739Z,30.23
2017-12-01T16:27:40.314Z,31.40
2017-12-01T16:30:14.884Z,29.73
2017-12-01T16:32:42.662Z,29.27
2017-12-01T16:35:13.866Z,30.95
2017-12-01T16:37:41.492Z,35.10
2017-12-01T16:40:09.084Z,30.62
2017-12-01T16:42:36.596Z,32.55
2017-12-01T16:45:04.122Z,33.03
2017-12-01T16:47:32.933Z,33.35
2017-12-01T16:50:00.463Z,33.97
2017-12-01T16:52:40.712Z,36.22
2017-12-01T16:55:08.217Z,35.70
2017-12-01T16:57:36.597Z,34.83
2017-12-01T17:00:19.886Z,33.55
2017-12-01T17:05:28.163Z,31.92
2017-12-01T17:07:55.656Z,31.58
2017-12-01T17:10:23.206Z,32.08
2017-12-01T17:12:50.722Z,29.92
2017-12-01T17:15:18.221Z,29.20
2017-12-01T17:17:45.771Z,25.92
2017-12-01T17:20:14.018Z,23.83
2017-12-01T17:22:41.578Z,29.08
2017-12-01T17:25:18.188Z,27.40
2017-12-01T17:27:52.982Z,26.33
2017-12-01T17:30:20.690Z,24.02
2017-12-01T17:32:48.898Z,25.37
2017-12-01T17:35:17.208Z,25.90
2017-12-01T17:37:44.878Z,22.23
2017-12-01T17:40:12.520Z,22.20
2017-12-01T17:42:40.132Z,22.83
2017-12-01T17:45:19.200Z,22.80
2017-12-01T17:47:48.274Z,20.92
2017-12-01T17:50:17.898Z,21.77
2017-12-01T17:52:45.450Z,23.20
2017-12-01T17:55:13.836Z,20.83
2017-12-01T17:57:41.485Z,21.95
2017-12-01T18:00:09.061Z,19.80
2017-12-01T18:02:36.667Z,18.52
2017-12-01T18:05:11.418Z,19.67
2017-12-01T18:07:52.221Z,20.42
2017-12-01T18:10:26.116Z,16.98
2017-12-01T18:12:54.650Z,19.05
2017-12-01T18:38:49.860Z,17.52
2017-12-01T18:43:54.951Z,19.58
2017-12-01T18:46:42.396Z,20.15
2017-12-01T18:49:10.624Z,23.95
2017-12-01T18:51:48.365Z,23.77
2017-12-01T19:21:33.432Z,23.58
2017-12-01T19:24:03.227Z,23.00
2017-12-01T19:26:31.611Z,22.67
2017-12-01T19:28:59.275Z,21.83
2017-12-01T19:31:30.686Z,20.52
2017-12-01T19:33:58.905Z,21.48
2017-12-01T19:36:27.063Z,19.90
2017-12-01T19:38:56.265Z,19.02
2017-12-01T21:15:04.792Z,35.60
2017-12-01T21:17:32.385Z,42.85
2017-12-01T21:20:00.755Z,43.10
2017-12-01T21:22:28.267Z,46.50
2017-12-01T21:24:55.822Z,41.47
2017-12-01T21:27:23.334Z,45.08
2017-12-01T21:29:50.904Z,46.95
2017-12-01T21:32:18.459Z,40.25
2017-12-01T21:34:46.045Z,37.38
2017-12-01T21:37:13.605Z,38.92
2017-12-01T21:39:41.082Z,40.33
2017-12-01T21:42:08.643Z,31.52
2017-12-01T21:44:36.229Z,34.42
2017-12-01T21:47:03.702Z,38.10
2017-12-01T21:49:31.242Z,36.88
2017-12-01T21:51:58.787Z,35.15
2017-12-01T21:54:26.385Z,37.33
2017-12-01T21:56:53.977Z,36.90
2017-12-01T21:59:21.486Z,41.70
2017-12-01T22:01:49.037Z,38.50
2017-12-01T22:04:16.585Z,35.85
2017-12-01T22:06:44.147Z,41.33
2017-12-01T22:09:11.682Z,37.30
2017-12-01T22:11:39.175Z,43.08
2017-12-01T22:14:06.713Z,43.40
2017-12-01T22:16:35.009Z,40.72
2017-12-01T22:19:02.567Z,48.67
2017-12-01T22:21:38.155Z,45.17
2017-12-01T22:24:05.670Z,46.58
2017-12-01T22:29:10.598Z,43.97
